Austin/Bergstrom AFB, Texas
Current Conditions -  °F | °C
As of 10:53 AM on Tuesday 21 Oct 2014 (Local Time) from KAUS Reporting Station
Few Clouds Few Clouds  
Wind Chill: 71°   Ceiling: Unl
Heat Index: 71°   Visibility: 10mi
Dew Point: 59°   Wind: 3mph
Humidity: 66%   Direction: 70°ENE
Pressure: 30.1"   Gusts: NA
Location:  30.2°N, 97.68°W
Report Text: KAUS 211553Z 07003KT 10SM FEW200 22/15 A3010 RMK AO2 SLP187 T02170150
Loading
Personal Weather Stations






























Interactive Weather Map
Tropical Storm Tracking
New forecast layout! Learn more

10-Day Weather Forecast

Advertisements
Track Severe Weather on mobile